Time;durP1;ratioP1;P1;durP2;ratioP2;P2;SDS_P1;SDS_P2;PMS_P1;PMS_P2;Temp;Humidity;BMP_temperature;BMP_pressure;BME280_temperature;BME280_humidity;BME280_pressure;Samples;Min_cycle;Max_cycle;Signal;HPM_P1;HPM_P2
2022/10/18 00:01:46;;;;;;;91.82;42.70;;;14.30;99.90;;;;;;5065913;28;20051;-57
2022/10/18 00:04:12;;;;;;;68.82;39.63;;;14.30;99.90;;;;;;5070031;28;20067;-57
2022/10/18 00:06:38;;;;;;;114.90;44.35;;;14.30;99.90;;;;;;5067420;28;20080;-57
2022/10/18 00:09:04;;;;;;;83.63;43.05;;;14.20;99.90;;;;;;5056050;28;20044;-58
2022/10/18 00:11:30;;;;;;;101.60;42.88;;;14.20;99.90;;;;;;5058366;28;20054;-58
2022/10/18 00:13:56;;;;;;;92.90;39.47;;;14.20;99.90;;;;;;5057280;28;20062;-57
2022/10/18 00:16:22;;;;;;;73.03;39.22;;;14.10;99.90;;;;;;5057173;28;20091;-57
2022/10/18 00:18:48;;;;;;;77.18;38.88;;;14.20;99.90;;;;;;5052070;28;21618;-57
2022/10/18 00:21:20;;;;;;;67.68;37.70;;;14.00;99.90;;;;;;5054085;28;20099;-58
2022/10/18 00:23:47;;;;;;;77.53;41.13;;;14.00;99.90;;;;;;5055381;28;20453;-57
2022/10/18 00:26:19;;;;;;;66.80;37.23;;;14.10;99.90;;;;;;5052037;28;20488;-58
2022/10/18 00:28:46;;;;;;;70.70;37.30;;;14.10;99.90;;;;;;5058042;28;20070;-57
2022/10/18 00:31:20;;;;;;;69.35;37.28;;;14.00;99.90;;;;;;5053802;28;20055;-56
2022/10/18 00:33:49;;;;;;;59.67;37.15;;;14.10;99.90;;;;;;5064793;28;20055;-56
2022/10/18 00:36:14;;;;;;;57.83;34.17;;;14.00;99.90;;;;;;5055426;28;20375;-57
2022/10/18 00:38:40;;;;;;;69.60;35.65;;;14.00;99.90;;;;;;5060944;28;20036;-56
2022/10/18 00:41:08;;;;;;;58.70;34.75;;;14.00;99.90;;;;;;5055563;28;20040;-57
2022/10/18 00:43:53;;;;;;;60.10;36.28;;;14.00;99.90;;;;;;5058745;28;20080;-57
2022/10/18 00:46:19;;;;;;;63.55;35.75;;;14.00;99.90;;;;;;5057733;28;20165;-56
2022/10/18 00:48:45;;;;;;;88.43;40.80;;;14.00;99.90;;;;;;5050376;28;20084;-55
2022/10/18 00:51:11;;;;;;;70.75;37.03;;;13.90;99.90;;;;;;5055444;28;20356;-55
2022/10/18 00:53:37;;;;;;;64.72;36.28;;;13.90;99.90;;;;;;5056317;28;20135;-58
2022/10/18 00:56:03;;;;;;;65.78;36.72;;;14.00;99.90;;;;;;5059660;28;20041;-57
2022/10/18 00:58:28;;;;;;;69.13;36.88;;;13.90;99.90;;;;;;5053063;28;20528;-54
2022/10/18 01:00:54;;;;;;;87.63;41.13;;;13.80;99.90;;;;;;5057245;28;20037;-56
2022/10/18 01:03:19;;;;;;;60.28;36.10;;;13.90;99.90;;;;;;5056404;28;20474;-56
2022/10/18 01:05:47;;;;;;;74.50;37.95;;;13.90;99.90;;;;;;5054356;28;20051;-57
2022/10/18 01:08:57;;;;;;;105.55;43.22;;;13.90;99.90;;;;;;5055942;28;20040;-57
2022/10/18 01:11:36;;;;;;;69.35;38.63;;;13.80;99.90;;;;;;5053360;28;20055;-57
2022/10/18 01:14:32;;;;;;;77.20;40.08;;;14.00;99.90;;;;;;5059640;28;20048;-56
2022/10/18 01:17:35;;;;;;;74.00;36.72;;;14.00;99.90;;;;;;5056632;28;20100;-57
2022/10/18 01:20:40;;;;;;;94.53;40.97;;;14.00;99.90;;;;;;5038232;28;20083;-58
2022/10/18 01:23:24;;;;;;;90.20;39.33;;;14.10;99.90;;;;;;5036506;28;20107;-58
2022/10/18 01:26:27;;;;;;;95.05;39.28;;;13.90;99.90;;;;;;5038703;28;20084;-57
2022/10/18 01:29:20;;;;;;;66.80;37.03;;;13.90;99.90;;;;;;5036651;28;20133;-55
2022/10/18 01:31:57;;;;;;;81.00;37.45;;;14.00;99.90;;;;;;5038271;28;20041;-56
2022/10/18 01:34:24;;;;;;;70.28;37.10;;;14.00;99.90;;;;;;5042130;28;20060;-55
2022/10/18 01:36:53;;;;;;;92.90;39.60;;;14.10;99.90;;;;;;5042083;28;20057;-55
2022/10/18 01:39:25;;;;;;;80.85;37.50;;;13.90;99.90;;;;;;5044327;28;20077;-55
2022/10/18 01:41:52;;;;;;;85.60;38.80;;;14.00;99.90;;;;;;5037719;28;20065;-57
2022/10/18 01:44:22;;;;;;;90.70;38.42;;;14.00;99.90;;;;;;5038138;28;20037;-57
2022/10/18 01:46:50;;;;;;;133.05;41.38;;;14.00;99.90;;;;;;5039238;28;20502;-57
2022/10/18 01:49:16;;;;;;;111.18;37.72;;;13.90;99.90;;;;;;5038581;28;20056;-56
2022/10/18 01:51:42;;;;;;;132.85;40.45;;;13.90;99.90;;;;;;5036767;28;20052;-56
2022/10/18 01:54:11;;;;;;;145.70;40.88;;;13.90;99.90;;;;;;5023392;28;20634;-57
2022/10/18 01:57:11;;;;;;;139.32;37.63;;;14.00;99.90;;;;;;5058924;28;20434;-56
2022/10/18 01:59:59;;;;;;;136.30;38.90;;;14.00;99.90;;;;;;5057518;28;20467;-56
2022/10/18 02:02:48;;;;;;;100.45;36.72;;;14.00;99.90;;;;;;5060799;28;20036;-56
2022/10/18 02:05:28;;;;;;;103.47;36.35;;;14.00;99.90;;;;;;5061789;28;20786;-56
2022/10/18 02:08:08;;;;;;;132.48;38.42;;;13.90;99.90;;;;;;5061374;28;20165;-58
2022/10/18 02:10:42;;;;;;;152.73;36.78;;;13.90;99.90;;;;;;5058663;28;20786;-57
2022/10/18 02:13:12;;;;;;;86.03;35.90;;;13.90;99.90;;;;;;5057707;28;20075;-55
2022/10/18 02:15:40;;;;;;;140.65;36.05;;;13.90;99.90;;;;;;5041490;28;20110;-58
2022/10/18 02:18:09;;;;;;;;;;;13.90;99.90;;;;;;5059541;28;20551;-58
2022/10/18 02:20:36;;;;;;;95.15;33.80;;;13.80;99.90;;;;;;5057882;28;20701;-57
2022/10/18 02:23:05;;;;;;;123.13;33.92;;;13.80;99.90;;;;;;5060206;28;20044;-57
2022/10/18 02:25:34;;;;;;;397.95;46.45;;;13.80;99.90;;;;;;5063373;28;20426;-57
2022/10/18 02:28:00;;;;;;;81.80;33.53;;;13.80;99.90;;;;;;5064759;28;20043;-57
2022/10/18 02:30:44;;;;;;;63.08;28.52;;;13.80;99.90;;;;;;5058292;28;20088;-56
2022/10/18 02:33:45;;;;;;;104.07;34.20;;;13.70;99.90;;;;;;5058759;28;20056;-57
2022/10/18 02:36:24;;;;;;;69.65;30.08;;;13.70;99.90;;;;;;5038271;28;20118;-57
2022/10/18 02:38:55;;;;;;;150.57;32.92;;;13.70;99.90;;;;;;5061176;28;20056;-57
2022/10/18 02:41:25;;;;;;;70.32;31.42;;;13.80;99.90;;;;;;5056572;28;20505;-57
2022/10/18 02:43:51;;;;;;;60.17;29.50;;;13.70;99.90;;;;;;5060436;28;20170;-57
2022/10/18 02:46:18;;;;;;;98.47;30.90;;;13.70;99.90;;;;;;5057761;28;20033;-58
2022/10/18 02:48:43;;;;;;;206.60;35.92;;;13.60;99.90;;;;;;5058789;28;20053;-59
2022/10/18 02:51:09;;;;;;;86.32;31.73;;;13.60;99.90;;;;;;5060645;28;20406;-56
2022/10/18 02:53:35;;;;;;;246.45;38.10;;;13.60;99.90;;;;;;5059069;28;20135;-58
2022/10/18 02:56:02;;;;;;;104.60;31.80;;;13.70;99.90;;;;;;5057383;28;20094;-57
2022/10/18 02:58:27;;;;;;;100.05;31.05;;;13.60;99.90;;;;;;5057999;28;20514;-57
2022/10/18 03:00:53;;;;;;;85.72;30.20;;;13.60;99.90;;;;;;5057694;28;20041;-59
2022/10/18 03:03:19;;;;;;;87.63;29.25;;;13.60;99.90;;;;;;5059552;28;20032;-57
2022/10/18 03:05:48;;;;;;;53.88;28.80;;;13.60;99.90;;;;;;5053760;28;20040;-57
2022/10/18 03:08:14;;;;;;;92.03;29.23;;;13.60;99.90;;;;;;5058567;28;20052;-57
2022/10/18 03:10:39;;;;;;;53.83;27.85;;;13.60;99.90;;;;;;5058339;28;20059;-58
2022/10/18 03:13:05;;;;;;;46.60;27.23;;;13.50;99.90;;;;;;5058795;28;20048;-56
2022/10/18 03:15:30;;;;;;;77.32;28.52;;;13.50;99.90;;;;;;5058034;28;20399;-56
2022/10/18 03:17:56;;;;;;;52.10;27.98;;;13.50;99.90;;;;;;5060816;28;20055;-57
2022/10/18 03:20:22;;;;;;;49.67;26.60;;;13.40;99.90;;;;;;5057796;28;20067;-57
2022/10/18 03:22:48;;;;;;;62.45;29.02;;;13.40;99.90;;;;;;5057989;28;20048;-58
2022/10/18 03:25:13;;;;;;;57.28;29.17;;;13.30;99.90;;;;;;5057559;28;20123;-57
2022/10/18 03:27:39;;;;;;;206.50;35.20;;;13.40;99.90;;;;;;5058839;28;20668;-57
2022/10/18 03:30:05;;;;;;;65.93;29.98;;;13.40;99.90;;;;;;5059265;28;20205;-57
2022/10/18 03:32:31;;;;;;;38.60;26.10;;;13.40;99.90;;;;;;5057723;28;20043;-57
2022/10/18 03:34:56;;;;;;;72.22;28.88;;;13.30;99.90;;;;;;5057910;28;20052;-58
2022/10/18 03:37:22;;;;;;;82.35;30.08;;;13.40;99.90;;;;;;5051927;28;20072;-57
2022/10/18 03:39:47;;;;;;;217.43;35.83;;;13.30;99.90;;;;;;5056363;28;20044;-57
2022/10/18 03:42:13;;;;;;;55.00;26.75;;;13.30;99.90;;;;;;5056201;28;20043;-57
2022/10/18 03:44:38;;;;;;;100.57;30.30;;;13.30;99.90;;;;;;5056265;28;20167;-57
2022/10/18 03:47:04;;;;;;;93.97;30.85;;;13.30;99.90;;;;;;5056111;28;20052;-56
2022/10/18 03:49:30;;;;;;;82.15;28.77;;;13.30;99.90;;;;;;5055959;28;20056;-57
2022/10/18 03:51:55;;;;;;;154.38;31.80;;;13.30;99.90;;;;;;5054729;28;20040;-57
2022/10/18 03:54:21;;;;;;;130.48;30.75;;;13.20;99.90;;;;;;5057203;28;20444;-57
2022/10/18 03:56:46;;;;;;;39.38;26.92;;;13.20;99.90;;;;;;5057927;28;20041;-57
2022/10/18 03:59:12;;;;;;;111.68;27.45;;;13.30;99.90;;;;;;5056587;28;20036;-57
2022/10/18 04:01:38;;;;;;;139.55;29.58;;;13.20;99.90;;;;;;5058466;28;20098;-58
2022/10/18 04:04:03;;;;;;;79.43;26.70;;;13.20;99.90;;;;;;5057194;28;20045;-56
2022/10/18 04:06:29;;;;;;;78.53;26.77;;;13.20;99.90;;;;;;5057885;28;20067;-56
2022/10/18 04:08:54;;;;;;;103.72;28.67;;;13.20;99.90;;;;;;5057669;28;20049;-57
2022/10/18 04:11:20;;;;;;;172.05;32.30;;;13.10;99.90;;;;;;5057518;28;20082;-57
2022/10/18 04:13:46;;;;;;;82.68;28.02;;;13.20;99.90;;;;;;5056008;28;20373;-57
2022/10/18 04:16:11;;;;;;;91.03;26.55;;;13.20;99.90;;;;;;5057102;28;20045;-56
2022/10/18 04:18:37;;;;;;;55.03;25.98;;;13.20;99.90;;;;;;5057969;28;20040;-57
2022/10/18 04:21:03;;;;;;;112.95;28.73;;;13.20;99.90;;;;;;5051296;28;20080;-56
2022/10/18 04:23:28;;;;;;;57.03;25.13;;;13.20;99.90;;;;;;5057637;28;20048;-56
2022/10/18 04:25:54;;;;;;;104.45;27.08;;;13.20;99.90;;;;;;5054508;28;20041;-55
2022/10/18 04:28:19;;;;;;;37.13;22.73;;;13.20;99.90;;;;;;5054406;28;20494;-55
2022/10/18 04:30:52;;;;;;;47.80;25.98;;;13.20;99.90;;;;;;5056011;28;20045;-55
2022/10/18 04:33:18;;;;;;;136.18;29.25;;;13.20;99.90;;;;;;5053495;28;20036;-56
2022/10/18 04:35:45;;;;;;;53.13;25.05;;;13.20;99.90;;;;;;5055363;28;20171;-55
2022/10/18 04:38:13;;;;;;;46.70;24.70;;;13.10;99.90;;;;;;5054878;28;20041;-57
2022/10/18 04:40:38;;;;;;;181.20;31.00;;;13.10;99.90;;;;;;5054071;28;20036;-56
2022/10/18 04:43:04;;;;;;;53.08;23.75;;;13.10;99.90;;;;;;5053723;28;20039;-56
2022/10/18 04:45:30;;;;;;;125.53;26.83;;;13.20;99.90;;;;;;5051547;28;20036;-57
2022/10/18 04:47:55;;;;;;;56.75;25.02;;;13.20;99.90;;;;;;5054800;28;20032;-56
2022/10/18 04:50:21;;;;;;;75.50;26.65;;;13.20;99.90;;;;;;5054374;28;20057;-57
2022/10/18 04:52:46;;;;;;;77.85;26.33;;;13.20;99.90;;;;;;5053097;28;20514;-59
2022/10/18 04:55:12;;;;;;;103.97;26.70;;;13.20;99.90;;;;;;5053851;28;20075;-57
2022/10/18 04:57:38;;;;;;;140.18;29.55;;;13.20;99.90;;;;;;5053926;28;20114;-56
2022/10/18 05:00:04;;;;;;;222.27;31.45;;;13.20;99.90;;;;;;5054114;28;20162;-57
2022/10/18 05:02:29;;;;;;;96.00;27.23;;;13.30;99.90;;;;;;5058227;28;20041;-58
2022/10/18 05:04:55;;;;;;;121.50;29.52;;;13.30;99.90;;;;;;5058124;28;20404;-56
2022/10/18 05:07:21;;;;;;;91.25;26.92;;;13.30;99.90;;;;;;5058241;28;20056;-57
2022/10/18 05:09:46;;;;;;;66.32;26.17;;;13.20;99.90;;;;;;5064354;28;20513;-57
2022/10/18 05:12:12;;;;;;;55.78;24.40;;;13.30;99.90;;;;;;5065257;28;20033;-57
2022/10/18 05:14:37;;;;;;;98.85;26.55;;;13.30;99.90;;;;;;5066524;28;20044;-57
2022/10/18 05:17:03;;;;;;;95.63;26.30;;;13.20;99.90;;;;;;5061884;28;20054;-54
2022/10/18 05:19:28;;;;;;;71.82;25.15;;;13.30;99.90;;;;;;5066221;28;20493;-57
2022/10/18 05:21:54;;;;;;;100.13;25.67;;;13.30;99.90;;;;;;5063684;28;20040;-57
2022/10/18 05:24:19;;;;;;;54.92;21.88;;;13.30;99.90;;;;;;5063978;28;20047;-57
2022/10/18 05:26:45;;;;;;;83.28;25.05;;;13.30;99.90;;;;;;5066092;28;20106;-57
2022/10/18 05:29:11;;;;;;;51.30;23.58;;;13.30;99.90;;;;;;5066054;28;20504;-56
2022/10/18 05:31:37;;;;;;;101.55;23.50;;;13.30;99.90;;;;;;5069635;28;20040;-56
2022/10/18 05:34:02;;;;;;;118.45;25.92;;;13.20;99.90;;;;;;5068941;28;20115;-57
2022/10/18 05:36:28;;;;;;;142.02;25.23;;;13.30;99.90;;;;;;5066942;28;20044;-58
2022/10/18 05:38:54;;;;;;;92.10;22.67;;;13.20;99.90;;;;;;5066971;28;20105;-57
2022/10/18 05:41:20;;;;;;;93.18;23.10;;;13.20;99.90;;;;;;5066674;28;20079;-57
2022/10/18 05:43:45;;;;;;;52.75;21.33;;;13.10;99.90;;;;;;5065288;28;20060;-56
2022/10/18 05:46:11;;;;;;;97.97;22.25;;;13.10;99.90;;;;;;5068845;28;20037;-56
2022/10/18 05:48:38;;;;;;;86.57;20.67;;;13.20;99.90;;;;;;5065629;28;20514;-57
2022/10/18 05:51:04;;;;;;;51.58;20.63;;;13.10;99.90;;;;;;5065759;28;20048;-56
2022/10/18 05:53:29;;;;;;;83.80;21.17;;;13.10;99.90;;;;;;5068069;28;20037;-57
2022/10/18 05:55:59;;;;;;;125.55;22.30;;;13.00;99.90;;;;;;5067517;28;20094;-56
2022/10/18 05:58:25;;;;;;;95.32;20.52;;;13.00;99.90;;;;;;5065753;28;20125;-56
2022/10/18 06:00:50;;;;;;;114.32;22.08;;;13.00;99.90;;;;;;5063589;28;20471;-57
2022/10/18 06:03:16;;;;;;;79.00;20.60;;;12.90;99.90;;;;;;5066644;28;20037;-56
2022/10/18 06:05:42;;;;;;;38.13;18.98;;;13.00;99.90;;;;;;5066502;28;20052;-56
2022/10/18 06:08:08;;;;;;;64.90;18.92;;;12.90;99.90;;;;;;5062268;28;21196;-58
2022/10/18 06:10:33;;;;;;;43.55;18.08;;;12.90;99.90;;;;;;5061659;28;20077;-55
2022/10/18 06:12:59;;;;;;;99.53;20.30;;;12.80;99.90;;;;;;5060482;28;20090;-56
2022/10/18 06:15:25;;;;;;;74.57;17.60;;;12.80;99.90;;;;;;5066839;28;20040;-56
2022/10/18 06:17:50;;;;;;;54.33;17.52;;;12.90;99.90;;;;;;5067112;28;20638;-56
2022/10/18 06:20:16;;;;;;;96.55;20.10;;;12.80;99.90;;;;;;5065461;28;20475;-56
2022/10/18 06:22:42;;;;;;;56.35;17.98;;;12.80;99.90;;;;;;5066754;28;20527;-55
2022/10/18 06:25:08;;;;;;;30.65;16.40;;;12.80;99.90;;;;;;5066339;28;20120;-57
2022/10/18 06:27:34;;;;;;;48.95;17.70;;;12.80;99.90;;;;;;5068480;28;20032;-55
2022/10/18 06:29:59;;;;;;;51.97;16.60;;;12.70;99.90;;;;;;5062702;28;20111;-57
2022/10/18 06:32:25;;;;;;;57.78;17.05;;;12.70;99.90;;;;;;5066458;28;20602;-58
2022/10/18 06:34:50;;;;;;;36.85;15.60;;;12.70;99.90;;;;;;5055563;28;20040;-57
2022/10/18 06:37:16;;;;;;;37.90;15.55;;;12.60;99.90;;;;;;5054143;28;20037;-55
2022/10/18 06:39:42;;;;;;;48.38;15.95;;;12.60;99.90;;;;;;5060153;28;20048;-57
2022/10/18 06:42:07;;;;;;;45.20;15.95;;;12.50;99.90;;;;;;5061898;28;20120;-57
2022/10/18 06:44:33;;;;;;;34.28;14.15;;;12.60;99.90;;;;;;5055937;28;20053;-58
2022/10/18 06:46:59;;;;;;;26.33;14.15;;;12.50;99.90;;;;;;5058314;28;20395;-57
2022/10/18 06:49:24;;;;;;;57.65;16.90;;;12.50;99.90;;;;;;5060588;28;20055;-57
2022/10/18 06:51:52;;;;;;;56.50;16.65;;;12.60;99.90;;;;;;5062631;28;20425;-57
2022/10/18 06:54:17;;;;;;;54.35;15.32;;;12.50;99.90;;;;;;5057880;28;20399;-59
2022/10/18 06:56:43;;;;;;;94.72;15.75;;;12.50;99.90;;;;;;5059086;28;20045;-57
2022/10/18 06:59:09;;;;;;;72.65;13.90;;;12.40;99.90;;;;;;5060071;28;20068;-57
2022/10/18 07:01:34;;;;;;;53.92;13.93;;;12.30;99.90;;;;;;5057418;28;20049;-58
2022/10/18 07:04:00;;;;;;;41.95;13.70;;;12.30;99.90;;;;;;5066023;28;20028;-56
2022/10/18 07:06:25;;;;;;;61.53;13.77;;;12.40;99.90;;;;;;5069815;28;20043;-57
2022/10/18 07:08:52;;;;;;;93.78;15.80;;;12.50;99.90;;;;;;5067396;28;20040;-57
2022/10/18 07:11:24;;;;;;;65.87;14.13;;;12.50;99.90;;;;;;5058871;28;20072;-56
2022/10/18 07:13:50;;;;;;;69.40;14.30;;;12.60;99.90;;;;;;5058473;28;20550;-58
2022/10/18 07:16:17;;;;;;;88.28;14.02;;;12.60;99.90;;;;;;5058952;28;20047;-57
2022/10/18 07:18:45;;;;;;;68.32;14.32;;;12.70;99.90;;;;;;5064141;28;20478;-57
2022/10/18 07:21:14;;;;;;;71.35;14.23;;;12.70;99.90;;;;;;5059175;28;20033;-56
2022/10/18 07:23:42;;;;;;;111.22;14.98;;;12.70;99.90;;;;;;5060360;28;20495;-57
2022/10/18 07:26:19;;;;;;;98.00;14.15;;;12.80;99.90;;;;;;5063475;28;20036;-56
2022/10/18 07:28:48;;;;;;;118.03;14.88;;;12.80;99.90;;;;;;5066930;28;20051;-58
2022/10/18 07:31:13;;;;;;;66.93;12.95;;;12.80;99.90;;;;;;5060489;28;20402;-57
2022/10/18 07:33:41;;;;;;;71.07;13.77;;;12.80;99.90;;;;;;5065141;28;21067;-62
2022/10/18 07:36:08;;;;;;;;;;;12.80;99.90;;;;;;5055365;28;20514;-56
2022/10/18 07:38:34;;;;;;;67.72;13.00;;;12.90;99.90;;;;;;5062005;28;19921;-56
2022/10/18 07:41:02;;;;;;;32.28;12.00;;;12.90;99.90;;;;;;5061078;28;20431;-57
2022/10/18 07:43:28;;;;;;;25.48;12.10;;;12.90;99.90;;;;;;5057476;28;20521;-56
2022/10/18 07:45:55;;;;;;;28.73;13.02;;;13.00;99.90;;;;;;5058577;28;20033;-59
2022/10/18 07:48:21;;;;;;;40.72;11.35;;;13.10;99.90;;;;;;5061166;28;20053;-56
2022/10/18 07:50:47;;;;;;;47.40;11.73;;;13.10;99.90;;;;;;5060410;28;20036;-56
2022/10/18 07:53:12;;;;;;;53.10;11.30;;;13.20;99.90;;;;;;5057672;28;20507;-56
2022/10/18 07:55:38;;;;;;;55.05;12.05;;;13.30;99.90;;;;;;5058462;28;20033;-58
2022/10/18 07:58:04;;;;;;;39.28;11.57;;;13.30;99.90;;;;;;5056521;28;20517;-57
2022/10/18 08:00:29;;;;;;;13.85;10.60;;;13.30;99.90;;;;;;5062336;28;20040;-57
2022/10/18 08:02:56;;;;;;;28.60;10.80;;;;;;;;;;5055326;28;20041;-57
2022/10/18 08:05:22;;;;;;;31.02;13.05;;;13.60;99.90;;;;;;5057578;28;20047;-58
2022/10/18 08:07:48;;;;;;;30.25;11.82;;;13.80;99.90;;;;;;5056777;28;20033;-56
2022/10/18 08:10:13;;;;;;;30.98;11.27;;;13.70;99.90;;;;;;5055911;28;20552;-57
2022/10/18 08:12:39;;;;;;;30.35;11.40;;;13.80;99.90;;;;;;5055463;28;20522;-57
2022/10/18 08:15:05;;;;;;;18.25;10.65;;;13.90;99.90;;;;;;5054502;28;20135;-58
2022/10/18 08:17:31;;;;;;;33.83;10.23;;;14.00;99.90;;;;;;5059093;28;20119;-57
2022/10/18 08:19:56;;;;;;;13.38;9.52;;;13.80;99.90;;;;;;5060860;28;20036;-57
2022/10/18 08:22:22;;;;;;;29.70;11.63;;;14.00;99.90;;;;;;5053505;28;20576;-57
2022/10/18 08:24:48;;;;;;;22.80;11.20;;;14.00;99.90;;;;;;5058209;28;20499;-55
2022/10/18 08:27:14;;;;;;;127.72;14.20;;;14.10;99.90;;;;;;5059609;28;20040;-57
2022/10/18 08:29:40;;;;;;;31.75;11.48;;;14.00;99.90;;;;;;5058405;28;20032;-56
2022/10/18 08:32:08;;;;;;;18.52;11.13;;;14.10;99.90;;;;;;5055419;28;20086;-57
2022/10/18 08:34:34;;;;;;;28.50;10.45;;;14.30;99.90;;;;;;5057191;28;20028;-57
2022/10/18 08:37:01;;;;;;;15.95;11.60;;;14.40;99.90;;;;;;5058049;28;20083;-57
2022/10/18 08:39:26;;;;;;;29.27;14.05;;;14.40;99.90;;;;;;5059702;28;20048;-57
2022/10/18 08:42:24;;;;;;;36.97;11.55;;;14.50;99.90;;;;;;5051805;28;20044;-57
2022/10/18 08:44:51;;;;;;;28.00;9.68;;;14.50;99.90;;;;;;5064409;28;20560;-58
2022/10/18 08:47:29;;;;;;;22.48;8.90;;;14.50;99.90;;;;;;5064208;28;20045;-58
2022/10/18 08:49:56;;;;;;;23.20;9.35;;;14.50;99.90;;;;;;5058279;28;20119;-58
2022/10/18 08:52:59;;;;;;;15.25;10.63;;;14.50;99.90;;;;;;5060343;28;20491;-58
2022/10/18 08:55:54;;;;;;;14.35;10.88;;;14.60;99.90;;;;;;5059934;28;20036;-58
2022/10/18 08:58:22;;;;;;;12.13;9.02;;;14.70;99.90;;;;;;5063050;28;20097;-58
2022/10/18 09:01:18;;;;;;;28.38;10.38;;;14.70;99.90;;;;;;5060125;28;20040;-57
2022/10/18 09:03:54;;;;;;;15.63;11.50;;;14.60;99.90;;;;;;5060849;28;20059;-58
2022/10/18 09:06:38;;;;;;;14.73;11.45;;;14.90;99.90;;;;;;5064192;28;20076;-58
2022/10/18 09:09:33;;;;;;;11.88;10.57;;;15.10;99.90;;;;;;5064360;28;20049;-58
2022/10/18 09:11:58;;;;;;;11.48;10.02;;;15.30;99.90;;;;;;5062082;28;20036;-57
2022/10/18 09:14:45;;;;;;;14.98;10.38;;;15.10;99.90;;;;;;5061725;28;21576;-58
2022/10/18 09:17:20;;;;;;;13.30;11.65;;;15.10;99.90;;;;;;5061776;28;20055;-57
2022/10/18 09:20:04;;;;;;;12.55;11.20;;;15.20;99.90;;;;;;5059108;28;20048;-59
2022/10/18 09:22:57;;;;;;;14.23;11.13;;;15.30;99.90;;;;;;5061392;28;20497;-57
2022/10/18 09:25:46;;;;;;;12.38;10.38;;;15.10;99.90;;;;;;5061921;28;20044;-58
2022/10/18 09:28:26;;;;;;;12.70;9.75;;;15.10;99.90;;;;;;5065659;28;20051;-57
2022/10/18 09:31:03;;;;;;;13.35;9.85;;;15.00;99.90;;;;;;5072519;28;20064;-58
2022/10/18 09:33:32;;;;;;;;;;;15.00;99.90;;;;;;5072747;28;20047;-58
2022/10/18 09:36:04;;;;;;;11.23;9.93;;;15.10;99.90;;;;;;5073969;28;19966;-57
2022/10/18 09:38:45;;;;;;;14.77;10.55;;;15.20;99.90;;;;;;5072809;28;20052;-57
2022/10/18 09:41:16;;;;;;;13.10;9.40;;;15.20;99.90;;;;;;5070874;28;20324;-56
2022/10/18 09:43:50;;;;;;;14.15;11.40;;;15.20;99.90;;;;;;5073547;28;20052;-57
2022/10/18 09:46:18;;;;;;;13.88;9.90;;;15.50;99.90;;;;;;5073646;28;20048;-58
2022/10/18 09:48:49;;;;;;;12.45;9.75;;;15.50;99.90;;;;;;5071812;28;20565;-57
2022/10/18 09:51:23;;;;;;;13.73;10.18;;;15.50;99.90;;;;;;5074048;28;20083;-57
2022/10/18 09:54:05;;;;;;;16.00;10.55;;;15.80;99.90;;;;;;5074085;28;20053;-57
2022/10/18 09:56:45;;;;;;;13.32;9.68;;;15.90;99.90;;;;;;5073238;28;20087;-57
2022/10/18 09:59:34;;;;;;;13.70;9.85;;;15.90;99.90;;;;;;5058397;28;20072;-57
2022/10/18 10:01:59;;;;;;;12.63;9.75;;;16.20;99.90;;;;;;5060446;28;20139;-56
2022/10/18 10:04:25;;;;;;;11.88;9.52;;;16.20;99.90;;;;;;5069495;28;20123;-58
2022/10/18 10:06:53;;;;;;;11.43;9.35;;;16.20;99.90;;;;;;5057115;28;20087;-58
2022/10/18 10:09:30;;;;;;;11.63;9.57;;;16.20;99.90;;;;;;5063247;28;20090;-57
2022/10/18 10:11:57;;;;;;;18.23;10.27;;;16.20;99.90;;;;;;5066228;28;20067;-57
2022/10/18 10:14:26;;;;;;;20.83;9.80;;;16.10;99.90;;;;;;5063112;28;20509;-57
2022/10/18 10:17:02;;;;;;;11.13;7.80;;;16.10;99.90;;;;;;5063847;28;20464;-57
2022/10/18 10:19:27;;;;;;;11.80;8.10;;;16.00;99.90;;;;;;5065990;28;20431;-58
2022/10/18 10:22:04;;;;;;;14.82;8.85;;;16.00;99.90;;;;;;5065503;28;20040;-58
2022/10/18 10:24:42;;;;;;;11.30;8.88;;;15.80;99.90;;;;;;5060318;28;20495;-56
2022/10/18 10:27:23;;;;;;;13.45;8.52;;;15.70;99.90;;;;;;5059217;28;20049;-56
2022/10/18 10:29:55;;;;;;;14.52;8.52;;;15.70;99.90;;;;;;5059584;28;20051;-57
2022/10/18 10:32:22;;;;;;;15.43;8.55;;;15.70;99.90;;;;;;5057757;28;20086;-56
2022/10/18 10:34:49;;;;;;;12.52;8.00;;;15.70;99.90;;;;;;5058758;28;20036;-56
2022/10/18 10:37:25;;;;;;;15.55;8.38;;;15.70;99.90;;;;;;5055908;28;20039;-55
2022/10/18 10:40:13;;;;;;;13.48;8.20;;;15.90;99.90;;;;;;5057398;28;20052;-55
2022/10/18 10:43:08;;;;;;;12.43;7.88;;;15.90;99.90;;;;;;5052857;28;20040;-56
2022/10/18 10:45:42;;;;;;;8.88;7.05;;;16.00;99.90;;;;;;5060649;28;20064;-56
2022/10/18 10:48:14;;;;;;;10.38;6.63;;;15.80;99.90;;;;;;5052985;28;20098;-56
2022/10/18 10:50:53;;;;;;;11.20;7.10;;;15.90;99.90;;;;;;5061884;28;20059;-56
2022/10/18 10:53:46;;;;;;;11.02;6.93;;;15.90;99.90;;;;;;5061345;28;20047;-55
2022/10/18 10:56:34;;;;;;;12.77;7.80;;;16.00;99.90;;;;;;5057398;28;20436;-56
2022/10/18 10:59:15;;;;;;;10.82;6.53;;;16.10;99.90;;;;;;5055918;28;20044;-55
2022/10/18 11:01:40;;;;;;;11.93;6.55;;;16.10;99.90;;;;;;5060929;28;20040;-56
2022/10/18 11:04:27;;;;;;;11.35;5.78;;;16.20;99.90;;;;;;5068020;28;20618;-56
2022/10/18 11:07:08;;;;;;;7.80;4.90;;;16.20;99.90;;;;;;5056741;28;20064;-54
2022/10/18 11:10:02;;;;;;;12.68;4.32;;;16.30;99.90;;;;;;5063552;28;20048;-56
2022/10/18 11:12:49;;;;;;;10.27;3.97;;;16.30;99.90;;;;;;5056427;28;20032;-55
2022/10/18 11:15:27;;;;;;;8.77;3.47;;;16.30;99.90;;;;;;5055370;28;20131;-55
2022/10/18 11:18:07;;;;;;;11.88;3.97;;;16.50;99.90;;;;;;5055079;28;20418;-55
2022/10/18 11:20:51;;;;;;;11.43;4.35;;;16.60;99.90;;;;;;5055413;28;20110;-57
2022/10/18 11:23:17;;;;;;;12.45;4.40;;;16.60;99.90;;;;;;5058324;28;20178;-57
2022/10/18 11:26:01;;;;;;;10.73;3.65;;;16.60;99.90;;;;;;5060298;28;20044;-57
2022/10/18 11:28:42;;;;;;;7.50;2.15;;;16.60;99.90;;;;;;5059661;28;20057;-57
2022/10/18 11:31:20;;;;;;;8.63;2.55;;;16.60;99.90;;;;;;5062447;28;22089;-57
2022/10/18 11:34:04;;;;;;;11.52;2.78;;;16.70;99.90;;;;;;5057391;28;20044;-56
2022/10/18 11:36:48;;;;;;;9.50;3.00;;;16.70;99.90;;;;;;5055540;28;20044;-56
2022/10/18 11:39:55;;;;;;;7.07;1.80;;;16.70;99.90;;;;;;5056754;28;20043;-54
2022/10/18 11:42:36;;;;;;;7.30;2.33;;;16.70;99.90;;;;;;5060417;28;20037;-55
2022/10/18 11:45:38;;;;;;;10.25;2.33;;;16.80;99.90;;;;;;5065726;28;20097;-56
2022/10/18 11:48:39;;;;;;;10.30;2.05;;;16.70;99.90;;;;;;5056854;28;20133;-60
2022/10/18 11:51:04;;;;;;;8.23;2.35;;;16.70;99.90;;;;;;5064222;28;20066;-56
2022/10/18 11:53:42;;;;;;;9.68;2.60;;;16.80;99.90;;;;;;5063117;28;20087;-56
2022/10/18 11:56:35;;;;;;;10.95;3.08;;;16.70;99.90;;;;;;5063763;28;20110;-56
2022/10/18 11:59:09;;;;;;;7.68;2.00;;;16.80;99.90;;;;;;5062173;28;20132;-52
2022/10/18 12:02:01;;;;;;;8.20;2.13;;;16.80;99.90;;;;;;5062382;28;20036;-54
2022/10/18 12:04:33;;;;;;;6.80;1.92;;;17.00;99.90;;;;;;5059611;28;20474;-54
2022/10/18 12:07:00;;;;;;;9.95;1.55;;;17.10;99.90;;;;;;5060227;28;20049;-54
2022/10/18 12:09:37;;;;;;;6.93;1.67;;;17.20;99.90;;;;;;5058087;28;20045;-54
2022/10/18 12:12:25;;;;;;;9.27;1.70;;;17.20;99.90;;;;;;5064184;28;20044;-55
2022/10/18 12:14:58;;;;;;;7.47;1.92;;;17.10;99.90;;;;;;5059597;28;20062;-56
2022/10/18 12:17:30;;;;;;;8.80;2.33;;;17.00;99.90;;;;;;5057998;28;20110;-54
2022/10/18 12:20:01;;;;;;;9.90;1.80;;;17.00;99.90;;;;;;5063073;28;20045;-54
2022/10/18 12:22:45;;;;;;;10.70;1.85;;;17.00;99.90;;;;;;5068388;28;20046;-54
2022/10/18 12:25:13;;;;;;;10.95;2.08;;;16.90;99.90;;;;;;5064388;28;20509;-54
2022/10/18 12:27:58;;;;;;;9.30;1.85;;;16.90;99.90;;;;;;5063898;28;20852;-53
2022/10/18 12:30:41;;;;;;;7.45;2.03;;;16.90;99.90;;;;;;5064696;28;20114;-53
2022/10/18 12:33:15;;;;;;;10.15;2.13;;;16.90;99.90;;;;;;5070485;28;20059;-50
2022/10/18 12:35:49;;;;;;;10.82;2.35;;;17.00;99.90;;;;;;5058293;28;20170;-53
2022/10/18 12:38:26;;;;;;;12.75;2.08;;;17.00;99.90;;;;;;5066207;28;20464;-53
2022/10/18 12:40:53;;;;;;;9.88;2.00;;;17.00;99.90;;;;;;5071256;28;20475;-55
2022/10/18 12:43:26;;;;;;;8.50;1.42;;;17.10;99.90;;;;;;5067079;28;20059;-54
2022/10/18 12:45:56;;;;;;;8.75;1.95;;;17.20;99.90;;;;;;5065904;28;20041;-54
2022/10/18 12:48:32;;;;;;;6.32;1.30;;;17.30;99.90;;;;;;5062143;28;20048;-55
2022/10/18 12:51:20;;;;;;;10.13;1.85;;;17.20;99.90;;;;;;5069062;28;20055;-55
2022/10/18 12:53:53;;;;;;;9.57;1.67;;;17.30;99.90;;;;;;5068053;28;20406;-54